sensor_id;sensor_type;location;lat;lon;timestamp;P1;durP1;ratioP1;P2;durP2;ratioP2
14740;SDS011;7462;53.530;9.414;2023-02-28T00:01:24;6.87;;;3.40;;
14740;SDS011;7462;53.530;9.414;2023-02-28T00:03:55;4.40;;;2.93;;
14740;SDS011;7462;53.530;9.414;2023-02-28T00:06:23;6.07;;;3.50;;
14740;SDS011;7462;53.530;9.414;2023-02-28T00:08:51;6.63;;;3.27;;
14740;SDS011;7462;53.530;9.414;2023-02-28T00:11:19;9.13;;;3.73;;
14740;SDS011;7462;53.530;9.414;2023-02-28T00:13:48;5.07;;;3.43;;
14740;SDS011;7462;53.530;9.414;2023-02-28T00:16:17;6.17;;;3.17;;
14740;SDS011;7462;53.530;9.414;2023-02-28T00:18:46;6.43;;;3.50;;
14740;SDS011;7462;53.530;9.414;2023-02-28T00:21:17;6.27;;;3.27;;
14740;SDS011;7462;53.530;9.414;2023-02-28T00:23:46;4.80;;;3.03;;
14740;SDS011;7462;53.530;9.414;2023-02-28T00:26:14;5.70;;;2.97;;
14740;SDS011;7462;53.530;9.414;2023-02-28T00:28:45;6.07;;;3.00;;
14740;SDS011;7462;53.530;9.414;2023-02-28T00:31:13;5.87;;;3.33;;
14740;SDS011;7462;53.530;9.414;2023-02-28T00:33:41;7.00;;;3.30;;
14740;SDS011;7462;53.530;9.414;2023-02-28T00:36:09;5.70;;;3.27;;
14740;SDS011;7462;53.530;9.414;2023-02-28T00:38:40;5.37;;;2.93;;
14740;SDS011;7462;53.530;9.414;2023-02-28T00:41:08;5.57;;;3.30;;
14740;SDS011;7462;53.530;9.414;2023-02-28T00:43:38;5.10;;;3.23;;
14740;SDS011;7462;53.530;9.414;2023-02-28T00:46:06;6.40;;;3.60;;
14740;SDS011;7462;53.530;9.414;2023-02-28T00:48:35;5.07;;;2.97;;
14740;SDS011;7462;53.530;9.414;2023-02-28T00:51:04;6.30;;;3.07;;
14740;SDS011;7462;53.530;9.414;2023-02-28T00:53:32;7.03;;;3.10;;
14740;SDS011;7462;53.530;9.414;2023-02-28T00:56:02;6.13;;;3.10;;
14740;SDS011;7462;53.530;9.414;2023-02-28T00:58:31;3.60;;;2.53;;
14740;SDS011;7462;53.530;9.414;2023-02-28T01:00:59;6.37;;;3.03;;
14740;SDS011;7462;53.530;9.414;2023-02-28T01:03:27;4.10;;;3.10;;
14740;SDS011;7462;53.530;9.414;2023-02-28T01:05:55;5.53;;;2.60;;
14740;SDS011;7462;53.530;9.414;2023-02-28T01:08:24;5.57;;;2.90;;
14740;SDS011;7462;53.530;9.414;2023-02-28T01:10:53;5.73;;;2.97;;
14740;SDS011;7462;53.530;9.414;2023-02-28T01:13:22;4.13;;;2.53;;
14740;SDS011;7462;53.530;9.414;2023-02-28T01:15:52;4.93;;;2.90;;
14740;SDS011;7462;53.530;9.414;2023-02-28T01:18:23;3.70;;;2.87;;
14740;SDS011;7462;53.530;9.414;2023-02-28T01:20:51;8.20;;;2.63;;
14740;SDS011;7462;53.530;9.414;2023-02-28T01:23:20;8.43;;;2.80;;
14740;SDS011;7462;53.530;9.414;2023-02-28T01:25:49;3.47;;;2.43;;
14740;SDS011;7462;53.530;9.414;2023-02-28T01:28:17;4.60;;;2.60;;
14740;SDS011;7462;53.530;9.414;2023-02-28T01:30:50;6.20;;;3.00;;
14740;SDS011;7462;53.530;9.414;2023-02-28T01:33:19;4.40;;;2.70;;
14740;SDS011;7462;53.530;9.414;2023-02-28T01:35:47;5.80;;;2.80;;
14740;SDS011;7462;53.530;9.414;2023-02-28T01:38:15;4.07;;;2.87;;
14740;SDS011;7462;53.530;9.414;2023-02-28T01:40:49;5.17;;;2.73;;
14740;SDS011;7462;53.530;9.414;2023-02-28T01:43:20;6.30;;;2.60;;
14740;SDS011;7462;53.530;9.414;2023-02-28T01:45:52;4.90;;;2.73;;
14740;SDS011;7462;53.530;9.414;2023-02-28T01:48:22;3.13;;;2.40;;
14740;SDS011;7462;53.530;9.414;2023-02-28T01:50:54;6.13;;;2.90;;
14740;SDS011;7462;53.530;9.414;2023-02-28T01:53:26;4.33;;;2.20;;
14740;SDS011;7462;53.530;9.414;2023-02-28T01:55:59;4.23;;;2.50;;
14740;SDS011;7462;53.530;9.414;2023-02-28T01:58:30;4.57;;;2.70;;
14740;SDS011;7462;53.530;9.414;2023-02-28T02:00:59;4.40;;;2.50;;
14740;SDS011;7462;53.530;9.414;2023-02-28T02:03:29;3.77;;;2.70;;
14740;SDS011;7462;53.530;9.414;2023-02-28T02:05:58;5.30;;;2.70;;
14740;SDS011;7462;53.530;9.414;2023-02-28T02:08:28;4.57;;;2.83;;
14740;SDS011;7462;53.530;9.414;2023-02-28T02:10:57;4.90;;;2.73;;
14740;SDS011;7462;53.530;9.414;2023-02-28T02:13:39;5.63;;;2.60;;
14740;SDS011;7462;53.530;9.414;2023-02-28T02:16:30;6.60;;;2.43;;
14740;SDS011;7462;53.530;9.414;2023-02-28T02:19:11;7.13;;;2.50;;
14740;SDS011;7462;53.530;9.414;2023-02-28T02:27:46;4.33;;;2.30;;
14740;SDS011;7462;53.530;9.414;2023-02-28T02:30:31;4.63;;;2.60;;
14740;SDS011;7462;53.530;9.414;2023-02-28T02:33:27;4.87;;;2.40;;
14740;SDS011;7462;53.530;9.414;2023-02-28T02:36:11;2.97;;;1.97;;
14740;SDS011;7462;53.530;9.414;2023-02-28T02:38:46;2.80;;;2.20;;
14740;SDS011;7462;53.530;9.414;2023-02-28T02:41:18;4.43;;;2.03;;
14740;SDS011;7462;53.530;9.414;2023-02-28T02:43:52;3.57;;;2.50;;
14740;SDS011;7462;53.530;9.414;2023-02-28T02:46:27;3.53;;;2.50;;
14740;SDS011;7462;53.530;9.414;2023-02-28T02:48:59;3.93;;;2.23;;
14740;SDS011;7462;53.530;9.414;2023-02-28T02:51:31;3.17;;;2.13;;
14740;SDS011;7462;53.530;9.414;2023-02-28T02:54:02;3.83;;;2.00;;
14740;SDS011;7462;53.530;9.414;2023-02-28T02:56:34;5.07;;;2.60;;
14740;SDS011;7462;53.530;9.414;2023-02-28T02:59:06;5.50;;;2.20;;
14740;SDS011;7462;53.530;9.414;2023-02-28T03:01:39;4.33;;;2.00;;
14740;SDS011;7462;53.530;9.414;2023-02-28T03:04:09;4.47;;;2.50;;
14740;SDS011;7462;53.530;9.414;2023-02-28T03:06:41;5.10;;;2.40;;
14740;SDS011;7462;53.530;9.414;2023-02-28T03:09:09;3.00;;;2.00;;
14740;SDS011;7462;53.530;9.414;2023-02-28T03:11:38;7.13;;;2.27;;
14740;SDS011;7462;53.530;9.414;2023-02-28T03:14:14;5.60;;;2.20;;
14740;SDS011;7462;53.530;9.414;2023-02-28T03:16:56;5.07;;;2.30;;
14740;SDS011;7462;53.530;9.414;2023-02-28T03:19:43;2.83;;;2.10;;
14740;SDS011;7462;53.530;9.414;2023-02-28T03:22:24;3.47;;;2.30;;
14740;SDS011;7462;53.530;9.414;2023-02-28T03:25:07;3.60;;;2.20;;
14740;SDS011;7462;53.530;9.414;2023-02-28T03:27:41;3.00;;;1.90;;
14740;SDS011;7462;53.530;9.414;2023-02-28T03:30:18;4.27;;;2.00;;
14740;SDS011;7462;53.530;9.414;2023-02-28T03:32:53;6.70;;;2.37;;
14740;SDS011;7462;53.530;9.414;2023-02-28T03:35:24;4.93;;;2.10;;
14740;SDS011;7462;53.530;9.414;2023-02-28T03:38:00;5.40;;;2.60;;
14740;SDS011;7462;53.530;9.414;2023-02-28T03:40:34;5.20;;;2.80;;
14740;SDS011;7462;53.530;9.414;2023-02-28T03:43:07;5.07;;;3.17;;
14740;SDS011;7462;53.530;9.414;2023-02-28T03:45:39;6.10;;;3.10;;
14740;SDS011;7462;53.530;9.414;2023-02-28T03:48:09;3.33;;;2.40;;
14740;SDS011;7462;53.530;9.414;2023-02-28T03:50:43;4.27;;;2.67;;
14740;SDS011;7462;53.530;9.414;2023-02-28T03:53:16;4.67;;;2.60;;
14740;SDS011;7462;53.530;9.414;2023-02-28T03:55:49;6.87;;;2.90;;
14740;SDS011;7462;53.530;9.414;2023-02-28T03:58:24;4.77;;;2.27;;
14740;SDS011;7462;53.530;9.414;2023-02-28T04:00:57;5.60;;;2.67;;
14740;SDS011;7462;53.530;9.414;2023-02-28T04:03:34;4.27;;;2.77;;
14740;SDS011;7462;53.530;9.414;2023-02-28T04:06:03;4.27;;;2.30;;
14740;SDS011;7462;53.530;9.414;2023-02-28T04:08:35;4.17;;;2.63;;
14740;SDS011;7462;53.530;9.414;2023-02-28T04:11:04;4.10;;;2.47;;
14740;SDS011;7462;53.530;9.414;2023-02-28T04:13:35;6.53;;;2.50;;
14740;SDS011;7462;53.530;9.414;2023-02-28T04:16:06;3.53;;;2.20;;
14740;SDS011;7462;53.530;9.414;2023-02-28T04:18:49;4.77;;;2.57;;
14740;SDS011;7462;53.530;9.414;2023-02-28T04:21:17;4.87;;;2.30;;
14740;SDS011;7462;53.530;9.414;2023-02-28T04:23:49;4.07;;;2.03;;
14740;SDS011;7462;53.530;9.414;2023-02-28T04:26:17;3.53;;;2.50;;
14740;SDS011;7462;53.530;9.414;2023-02-28T04:28:45;4.13;;;2.30;;
14740;SDS011;7462;53.530;9.414;2023-02-28T04:31:13;5.00;;;2.50;;
14740;SDS011;7462;53.530;9.414;2023-02-28T04:33:41;3.77;;;2.30;;
14740;SDS011;7462;53.530;9.414;2023-02-28T04:36:09;4.73;;;2.17;;
14740;SDS011;7462;53.530;9.414;2023-02-28T04:38:38;4.50;;;2.50;;
14740;SDS011;7462;53.530;9.414;2023-02-28T04:41:08;5.00;;;2.57;;
14740;SDS011;7462;53.530;9.414;2023-02-28T04:43:36;4.30;;;2.17;;
14740;SDS011;7462;53.530;9.414;2023-02-28T04:46:04;6.57;;;2.73;;
14740;SDS011;7462;53.530;9.414;2023-02-28T04:48:34;5.00;;;2.33;;
14740;SDS011;7462;53.530;9.414;2023-02-28T04:51:05;7.33;;;2.70;;
14740;SDS011;7462;53.530;9.414;2023-02-28T04:53:34;5.37;;;2.67;;
14740;SDS011;7462;53.530;9.414;2023-02-28T04:56:03;7.60;;;2.70;;
14740;SDS011;7462;53.530;9.414;2023-02-28T04:58:34;3.83;;;2.60;;
14740;SDS011;7462;53.530;9.414;2023-02-28T05:01:02;5.13;;;2.53;;
14740;SDS011;7462;53.530;9.414;2023-02-28T05:03:38;5.43;;;2.97;;
14740;SDS011;7462;53.530;9.414;2023-02-28T05:06:07;5.67;;;2.90;;
14740;SDS011;7462;53.530;9.414;2023-02-28T05:08:35;3.90;;;2.77;;
14740;SDS011;7462;53.530;9.414;2023-02-28T05:11:07;4.60;;;2.90;;
14740;SDS011;7462;53.530;9.414;2023-02-28T05:13:43;3.77;;;2.30;;
14740;SDS011;7462;53.530;9.414;2023-02-28T05:16:11;6.73;;;3.30;;
14740;SDS011;7462;53.530;9.414;2023-02-28T05:18:39;6.23;;;2.80;;
14740;SDS011;7462;53.530;9.414;2023-02-28T05:21:17;6.70;;;3.23;;
14740;SDS011;7462;53.530;9.414;2023-02-28T05:23:54;6.47;;;4.03;;
14740;SDS011;7462;53.530;9.414;2023-02-28T05:26:23;5.03;;;3.70;;
14740;SDS011;7462;53.530;9.414;2023-02-28T05:28:53;5.60;;;3.20;;
14740;SDS011;7462;53.530;9.414;2023-02-28T05:31:22;5.13;;;3.20;;
14740;SDS011;7462;53.530;9.414;2023-02-28T05:33:50;7.40;;;4.03;;
14740;SDS011;7462;53.530;9.414;2023-02-28T05:36:19;5.83;;;3.37;;
14740;SDS011;7462;53.530;9.414;2023-02-28T05:38:47;5.10;;;3.03;;
14740;SDS011;7462;53.530;9.414;2023-02-28T05:41:16;5.53;;;3.17;;
14740;SDS011;7462;53.530;9.414;2023-02-28T05:43:45;5.53;;;2.90;;
14740;SDS011;7462;53.530;9.414;2023-02-28T05:46:15;5.03;;;3.20;;
14740;SDS011;7462;53.530;9.414;2023-02-28T05:48:45;5.77;;;2.80;;
14740;SDS011;7462;53.530;9.414;2023-02-28T05:51:15;5.00;;;3.07;;
14740;SDS011;7462;53.530;9.414;2023-02-28T05:53:43;5.30;;;3.00;;
14740;SDS011;7462;53.530;9.414;2023-02-28T05:56:12;6.13;;;3.60;;
14740;SDS011;7462;53.530;9.414;2023-02-28T05:58:40;5.63;;;3.40;;
14740;SDS011;7462;53.530;9.414;2023-02-28T06:01:23;5.47;;;3.17;;
14740;SDS011;7462;53.530;9.414;2023-02-28T06:03:58;6.00;;;3.10;;
14740;SDS011;7462;53.530;9.414;2023-02-28T06:06:27;5.17;;;3.30;;
14740;SDS011;7462;53.530;9.414;2023-02-28T06:08:56;4.53;;;3.50;;
14740;SDS011;7462;53.530;9.414;2023-02-28T06:11:25;8.40;;;4.40;;
14740;SDS011;7462;53.530;9.414;2023-02-28T06:13:54;6.27;;;4.30;;
14740;SDS011;7462;53.530;9.414;2023-02-28T06:16:24;12.23;;;4.93;;
14740;SDS011;7462;53.530;9.414;2023-02-28T06:18:53;12.63;;;5.27;;
14740;SDS011;7462;53.530;9.414;2023-02-28T06:21:23;7.73;;;4.60;;
14740;SDS011;7462;53.530;9.414;2023-02-28T06:23:51;8.07;;;5.03;;
14740;SDS011;7462;53.530;9.414;2023-02-28T06:26:19;8.23;;;5.03;;
14740;SDS011;7462;53.530;9.414;2023-02-28T06:28:47;7.73;;;5.30;;
14740;SDS011;7462;53.530;9.414;2023-02-28T06:31:16;10.57;;;5.80;;
14740;SDS011;7462;53.530;9.414;2023-02-28T06:33:47;7.90;;;4.97;;
14740;SDS011;7462;53.530;9.414;2023-02-28T06:36:16;6.53;;;4.57;;
14740;SDS011;7462;53.530;9.414;2023-02-28T06:38:45;9.03;;;5.00;;
14740;SDS011;7462;53.530;9.414;2023-02-28T06:41:17;7.70;;;4.87;;
14740;SDS011;7462;53.530;9.414;2023-02-28T06:43:45;9.27;;;5.13;;
14740;SDS011;7462;53.530;9.414;2023-02-28T06:46:13;8.40;;;4.57;;
14740;SDS011;7462;53.530;9.414;2023-02-28T06:48:42;6.87;;;4.60;;
14740;SDS011;7462;53.530;9.414;2023-02-28T06:51:13;7.20;;;4.13;;
14740;SDS011;7462;53.530;9.414;2023-02-28T06:53:42;9.33;;;4.30;;
14740;SDS011;7462;53.530;9.414;2023-02-28T06:56:11;7.03;;;4.80;;
14740;SDS011;7462;53.530;9.414;2023-02-28T06:58:41;5.57;;;4.27;;
14740;SDS011;7462;53.530;9.414;2023-02-28T07:01:10;5.57;;;3.80;;
14740;SDS011;7462;53.530;9.414;2023-02-28T07:03:38;6.33;;;4.03;;
14740;SDS011;7462;53.530;9.414;2023-02-28T07:06:06;7.63;;;4.17;;
14740;SDS011;7462;53.530;9.414;2023-02-28T07:08:36;5.67;;;3.70;;
14740;SDS011;7462;53.530;9.414;2023-02-28T07:11:06;5.40;;;3.70;;
14740;SDS011;7462;53.530;9.414;2023-02-28T07:13:34;6.57;;;3.53;;
14740;SDS011;7462;53.530;9.414;2023-02-28T07:16:04;5.73;;;3.30;;
14740;SDS011;7462;53.530;9.414;2023-02-28T07:18:35;4.17;;;3.17;;
14740;SDS011;7462;53.530;9.414;2023-02-28T07:21:04;4.03;;;3.10;;
14740;SDS011;7462;53.530;9.414;2023-02-28T07:23:35;7.83;;;3.47;;
14740;SDS011;7462;53.530;9.414;2023-02-28T07:26:05;5.10;;;3.23;;
14740;SDS011;7462;53.530;9.414;2023-02-28T07:28:33;5.17;;;3.53;;
14740;SDS011;7462;53.530;9.414;2023-02-28T07:31:05;4.50;;;3.27;;
14740;SDS011;7462;53.530;9.414;2023-02-28T07:33:34;4.27;;;3.30;;
14740;SDS011;7462;53.530;9.414;2023-02-28T07:36:03;7.53;;;3.20;;
14740;SDS011;7462;53.530;9.414;2023-02-28T07:38:33;6.20;;;3.33;;
14740;SDS011;7462;53.530;9.414;2023-02-28T07:41:03;5.77;;;3.50;;
14740;SDS011;7462;53.530;9.414;2023-02-28T07:43:32;7.97;;;3.67;;
14740;SDS011;7462;53.530;9.414;2023-02-28T07:46:01;5.33;;;3.53;;
14740;SDS011;7462;53.530;9.414;2023-02-28T07:48:30;7.13;;;3.70;;
14740;SDS011;7462;53.530;9.414;2023-02-28T07:50:58;6.63;;;3.40;;
14740;SDS011;7462;53.530;9.414;2023-02-28T07:53:27;5.33;;;3.70;;
14740;SDS011;7462;53.530;9.414;2023-02-28T07:55:58;4.30;;;3.23;;
14740;SDS011;7462;53.530;9.414;2023-02-28T07:58:27;5.13;;;3.60;;
14740;SDS011;7462;53.530;9.414;2023-02-28T08:00:56;4.70;;;3.00;;
14740;SDS011;7462;53.530;9.414;2023-02-28T08:03:24;5.10;;;3.27;;
14740;SDS011;7462;53.530;9.414;2023-02-28T08:05:53;5.30;;;3.30;;
14740;SDS011;7462;53.530;9.414;2023-02-28T08:08:21;3.90;;;2.50;;
14740;SDS011;7462;53.530;9.414;2023-02-28T08:10:49;3.37;;;2.80;;
14740;SDS011;7462;53.530;9.414;2023-02-28T08:13:19;4.80;;;2.90;;
14740;SDS011;7462;53.530;9.414;2023-02-28T08:15:47;6.33;;;2.90;;
14740;SDS011;7462;53.530;9.414;2023-02-28T08:18:15;4.43;;;2.80;;
14740;SDS011;7462;53.530;9.414;2023-02-28T08:20:43;4.47;;;2.60;;
14740;SDS011;7462;53.530;9.414;2023-02-28T08:23:11;5.73;;;2.70;;
14740;SDS011;7462;53.530;9.414;2023-02-28T08:25:39;4.93;;;2.70;;
14740;SDS011;7462;53.530;9.414;2023-02-28T08:28:07;4.97;;;2.03;;
14740;SDS011;7462;53.530;9.414;2023-02-28T08:30:36;2.90;;;2.10;;
14740;SDS011;7462;53.530;9.414;2023-02-28T08:33:07;3.87;;;2.63;;
14740;SDS011;7462;53.530;9.414;2023-02-28T08:35:35;4.40;;;2.53;;
14740;SDS011;7462;53.530;9.414;2023-02-28T08:38:04;4.73;;;2.40;;
14740;SDS011;7462;53.530;9.414;2023-02-28T08:40:32;4.60;;;2.30;;
14740;SDS011;7462;53.530;9.414;2023-02-28T08:43:00;3.30;;;2.00;;
14740;SDS011;7462;53.530;9.414;2023-02-28T08:45:28;2.80;;;2.10;;
14740;SDS011;7462;53.530;9.414;2023-02-28T08:47:58;2.57;;;2.00;;
14740;SDS011;7462;53.530;9.414;2023-02-28T08:50:26;4.30;;;2.23;;
14740;SDS011;7462;53.530;9.414;2023-02-28T08:52:54;2.97;;;1.80;;
14740;SDS011;7462;53.530;9.414;2023-02-28T08:55:22;3.87;;;1.97;;
14740;SDS011;7462;53.530;9.414;2023-02-28T08:57:50;3.20;;;1.70;;
14740;SDS011;7462;53.530;9.414;2023-02-28T09:00:19;3.00;;;1.80;;
14740;SDS011;7462;53.530;9.414;2023-02-28T09:02:47;2.03;;;1.77;;
14740;SDS011;7462;53.530;9.414;2023-02-28T09:05:17;3.83;;;1.80;;
14740;SDS011;7462;53.530;9.414;2023-02-28T09:07:45;4.97;;;1.53;;
14740;SDS011;7462;53.530;9.414;2023-02-28T09:10:13;2.60;;;1.60;;
14740;SDS011;7462;53.530;9.414;2023-02-28T09:12:41;2.50;;;1.40;;
14740;SDS011;7462;53.530;9.414;2023-02-28T09:15:12;2.23;;;1.53;;
14740;SDS011;7462;53.530;9.414;2023-02-28T09:17:40;2.00;;;1.60;;
14740;SDS011;7462;53.530;9.414;2023-02-28T09:20:12;2.27;;;1.67;;
14740;SDS011;7462;53.530;9.414;2023-02-28T09:22:41;2.17;;;1.27;;
14740;SDS011;7462;53.530;9.414;2023-02-28T09:25:09;3.13;;;1.60;;
14740;SDS011;7462;53.530;9.414;2023-02-28T09:27:37;3.20;;;1.33;;
14740;SDS011;7462;53.530;9.414;2023-02-28T09:30:08;2.00;;;1.30;;
14740;SDS011;7462;53.530;9.414;2023-02-28T09:32:36;5.80;;;1.70;;
14740;SDS011;7462;53.530;9.414;2023-02-28T09:35:05;2.40;;;1.20;;
14740;SDS011;7462;53.530;9.414;2023-02-28T09:37:39;3.03;;;1.33;;
14740;SDS011;7462;53.530;9.414;2023-02-28T09:40:09;2.43;;;1.70;;
14740;SDS011;7462;53.530;9.414;2023-02-28T09:42:39;2.70;;;1.30;;
14740;SDS011;7462;53.530;9.414;2023-02-28T09:45:11;2.00;;;1.23;;
14740;SDS011;7462;53.530;9.414;2023-02-28T09:47:47;3.47;;;1.30;;
14740;SDS011;7462;53.530;9.414;2023-02-28T09:50:20;1.60;;;1.40;;
14740;SDS011;7462;53.530;9.414;2023-02-28T09:52:57;1.80;;;1.17;;
14740;SDS011;7462;53.530;9.414;2023-02-28T09:55:28;2.07;;;1.10;;
14740;SDS011;7462;53.530;9.414;2023-02-28T09:58:08;1.80;;;1.10;;
14740;SDS011;7462;53.530;9.414;2023-02-28T10:00:43;2.47;;;0.93;;
14740;SDS011;7462;53.530;9.414;2023-02-28T10:03:18;2.43;;;0.97;;
14740;SDS011;7462;53.530;9.414;2023-02-28T10:05:57;1.20;;;1.00;;
14740;SDS011;7462;53.530;9.414;2023-02-28T10:08:32;2.20;;;1.10;;
14740;SDS011;7462;53.530;9.414;2023-02-28T10:11:09;2.23;;;0.90;;
14740;SDS011;7462;53.530;9.414;2023-02-28T10:13:46;1.90;;;1.00;;
14740;SDS011;7462;53.530;9.414;2023-02-28T10:16:22;1.43;;;0.97;;
14740;SDS011;7462;53.530;9.414;2023-02-28T10:18:56;1.13;;;1.00;;
14740;SDS011;7462;53.530;9.414;2023-02-28T10:21:30;3.57;;;1.50;;
14740;SDS011;7462;53.530;9.414;2023-02-28T10:24:03;4.13;;;1.37;;
14740;SDS011;7462;53.530;9.414;2023-02-28T10:26:40;2.20;;;1.23;;
14740;SDS011;7462;53.530;9.414;2023-02-28T10:29:12;5.23;;;1.10;;
14740;SDS011;7462;53.530;9.414;2023-02-28T10:31:40;3.80;;;1.60;;
14740;SDS011;7462;53.530;9.414;2023-02-28T10:34:10;2.63;;;1.40;;
14740;SDS011;7462;53.530;9.414;2023-02-28T10:36:40;1.83;;;1.13;;
14740;SDS011;7462;53.530;9.414;2023-02-28T10:42:18;3.17;;;1.70;;
14740;SDS011;7462;53.530;9.414;2023-02-28T10:44:47;2.27;;;1.70;;
14740;SDS011;7462;53.530;9.414;2023-02-28T10:47:16;2.67;;;1.63;;
14740;SDS011;7462;53.530;9.414;2023-02-28T10:49:47;3.27;;;1.60;;
14740;SDS011;7462;53.530;9.414;2023-02-28T10:52:31;2.00;;;1.27;;
14740;SDS011;7462;53.530;9.414;2023-02-28T10:55:18;2.53;;;1.50;;
14740;SDS011;7462;53.530;9.414;2023-02-28T10:57:50;2.90;;;1.40;;
14740;SDS011;7462;53.530;9.414;2023-02-28T11:02:51;2.20;;;1.40;;
14740;SDS011;7462;53.530;9.414;2023-02-28T11:05:23;2.90;;;1.50;;
14740;SDS011;7462;53.530;9.414;2023-02-28T11:07:59;2.43;;;1.37;;
14740;SDS011;7462;53.530;9.414;2023-02-28T11:10:33;3.90;;;1.40;;
14740;SDS011;7462;53.530;9.414;2023-02-28T11:13:03;2.23;;;1.40;;
14740;SDS011;7462;53.530;9.414;2023-02-28T11:15:32;1.97;;;1.30;;
14740;SDS011;7462;53.530;9.414;2023-02-28T11:18:02;3.07;;;1.33;;
14740;SDS011;7462;53.530;9.414;2023-02-28T11:20:47;3.20;;;1.30;;
14740;SDS011;7462;53.530;9.414;2023-02-28T11:23:16;2.37;;;1.57;;
14740;SDS011;7462;53.530;9.414;2023-02-28T11:25:47;3.07;;;1.53;;
14740;SDS011;7462;53.530;9.414;2023-02-28T11:28:26;2.80;;;1.47;;
14740;SDS011;7462;53.530;9.414;2023-02-28T11:30:59;2.40;;;1.33;;
14740;SDS011;7462;53.530;9.414;2023-02-28T11:33:29;3.00;;;1.80;;
14740;SDS011;7462;53.530;9.414;2023-02-28T11:36:00;2.80;;;2.23;;
14740;SDS011;7462;53.530;9.414;2023-02-28T11:38:31;3.93;;;1.40;;
14740;SDS011;7462;53.530;9.414;2023-02-28T11:41:05;2.13;;;1.73;;
14740;SDS011;7462;53.530;9.414;2023-02-28T11:44:01;3.80;;;1.80;;
14740;SDS011;7462;53.530;9.414;2023-02-28T11:46:43;2.73;;;1.77;;
14740;SDS011;7462;53.530;9.414;2023-02-28T11:49:21;2.57;;;2.00;;
14740;SDS011;7462;53.530;9.414;2023-02-28T11:52:06;4.37;;;1.80;;
14740;SDS011;7462;53.530;9.414;2023-02-28T11:54:52;3.13;;;2.40;;
14740;SDS011;7462;53.530;9.414;2023-02-28T11:57:35;3.90;;;2.73;;
14740;SDS011;7462;53.530;9.414;2023-02-28T12:00:24;3.47;;;1.70;;
14740;SDS011;7462;53.530;9.414;2023-02-28T12:03:06;4.17;;;3.13;;
14740;SDS011;7462;53.530;9.414;2023-02-28T12:05:45;4.00;;;1.93;;
14740;SDS011;7462;53.530;9.414;2023-02-28T12:08:23;4.40;;;2.33;;
14740;SDS011;7462;53.530;9.414;2023-02-28T12:11:03;2.17;;;1.40;;
14740;SDS011;7462;53.530;9.414;2023-02-28T12:13:42;2.40;;;1.73;;
14740;SDS011;7462;53.530;9.414;2023-02-28T12:19:19;6.53;;;3.77;;
14740;SDS011;7462;53.530;9.414;2023-02-28T12:25:01;2.63;;;1.57;;
14740;SDS011;7462;53.530;9.414;2023-02-28T12:27:46;2.00;;;1.57;;
14740;SDS011;7462;53.530;9.414;2023-02-28T12:30:17;4.30;;;3.07;;
14740;SDS011;7462;53.530;9.414;2023-02-28T12:32:52;2.17;;;1.40;;
14740;SDS011;7462;53.530;9.414;2023-02-28T12:35:25;2.90;;;1.60;;
14740;SDS011;7462;53.530;9.414;2023-02-28T12:38:01;1.87;;;1.50;;
14740;SDS011;7462;53.530;9.414;2023-02-28T12:40:33;3.97;;;2.30;;
14740;SDS011;7462;53.530;9.414;2023-02-28T12:43:10;4.17;;;2.60;;
14740;SDS011;7462;53.530;9.414;2023-02-28T12:45:41;1.90;;;1.40;;
14740;SDS011;7462;53.530;9.414;2023-02-28T12:48:18;2.63;;;1.70;;
14740;SDS011;7462;53.530;9.414;2023-02-28T12:50:51;3.13;;;1.63;;
14740;SDS011;7462;53.530;9.414;2023-02-28T12:53:22;2.80;;;1.70;;
14740;SDS011;7462;53.530;9.414;2023-02-28T12:55:56;13.70;;;10.30;;
14740;SDS011;7462;53.530;9.414;2023-02-28T12:58:36;5.70;;;2.53;;
14740;SDS011;7462;53.530;9.414;2023-02-28T13:01:30;5.50;;;2.13;;
14740;SDS011;7462;53.530;9.414;2023-02-28T13:07:15;2.07;;;1.70;;
14740;SDS011;7462;53.530;9.414;2023-02-28T13:10:08;2.40;;;1.80;;
14740;SDS011;7462;53.530;9.414;2023-02-28T13:12:37;2.93;;;1.50;;
14740;SDS011;7462;53.530;9.414;2023-02-28T13:15:17;1.90;;;1.60;;
14740;SDS011;7462;53.530;9.414;2023-02-28T13:17:51;4.73;;;3.47;;
14740;SDS011;7462;53.530;9.414;2023-02-28T13:20:23;2.50;;;1.60;;
14740;SDS011;7462;53.530;9.414;2023-02-28T13:22:55;11.47;;;8.77;;
14740;SDS011;7462;53.530;9.414;2023-02-28T13:31:35;3.80;;;1.90;;
14740;SDS011;7462;53.530;9.414;2023-02-28T13:34:46;2.20;;;1.60;;
14740;SDS011;7462;53.530;9.414;2023-02-28T13:37:41;2.67;;;1.80;;
14740;SDS011;7462;53.530;9.414;2023-02-28T13:40:26;2.37;;;1.63;;
14740;SDS011;7462;53.530;9.414;2023-02-28T13:43:03;3.03;;;1.53;;
14740;SDS011;7462;53.530;9.414;2023-02-28T13:45:35;3.90;;;1.70;;
14740;SDS011;7462;53.530;9.414;2023-02-28T13:48:05;2.17;;;1.67;;
14740;SDS011;7462;53.530;9.414;2023-02-28T13:50:46;2.20;;;1.80;;
14740;SDS011;7462;53.530;9.414;2023-02-28T13:56:23;2.60;;;1.70;;
14740;SDS011;7462;53.530;9.414;2023-02-28T13:58:59;2.77;;;1.67;;
14740;SDS011;7462;53.530;9.414;2023-02-28T14:01:45;2.17;;;1.57;;
14740;SDS011;7462;53.530;9.414;2023-02-28T14:07:30;2.87;;;1.53;;
14740;SDS011;7462;53.530;9.414;2023-02-28T14:10:03;2.10;;;1.50;;
14740;SDS011;7462;53.530;9.414;2023-02-28T14:12:53;2.73;;;1.97;;
14740;SDS011;7462;53.530;9.414;2023-02-28T14:18:25;3.70;;;1.67;;
14740;SDS011;7462;53.530;9.414;2023-02-28T14:21:14;2.43;;;1.80;;
14740;SDS011;7462;53.530;9.414;2023-02-28T14:23:59;2.10;;;1.53;;
14740;SDS011;7462;53.530;9.414;2023-02-28T14:27:06;2.83;;;1.80;;
14740;SDS011;7462;53.530;9.414;2023-02-28T14:33:08;2.17;;;1.67;;
14740;SDS011;7462;53.530;9.414;2023-02-28T14:35:58;2.67;;;1.70;;
14740;SDS011;7462;53.530;9.414;2023-02-28T14:38:32;3.20;;;1.60;;
14740;SDS011;7462;53.530;9.414;2023-02-28T14:41:06;2.60;;;1.60;;
14740;SDS011;7462;53.530;9.414;2023-02-28T14:43:53;3.50;;;1.60;;
14740;SDS011;7462;53.530;9.414;2023-02-28T14:46:23;4.70;;;2.20;;
14740;SDS011;7462;53.530;9.414;2023-02-28T14:48:55;3.47;;;1.70;;
14740;SDS011;7462;53.530;9.414;2023-02-28T14:51:23;2.30;;;1.53;;
14740;SDS011;7462;53.530;9.414;2023-02-28T14:53:59;2.97;;;1.50;;
14740;SDS011;7462;53.530;9.414;2023-02-28T14:56:33;2.93;;;1.83;;
14740;SDS011;7462;53.530;9.414;2023-02-28T14:59:03;1.97;;;1.53;;
14740;SDS011;7462;53.530;9.414;2023-02-28T15:01:31;3.23;;;2.50;;
14740;SDS011;7462;53.530;9.414;2023-02-28T15:04:01;1.90;;;1.70;;
14740;SDS011;7462;53.530;9.414;2023-02-28T15:06:31;1.80;;;1.40;;
14740;SDS011;7462;53.530;9.414;2023-02-28T15:09:07;2.47;;;1.40;;
14740;SDS011;7462;53.530;9.414;2023-02-28T15:11:38;1.83;;;1.30;;
14740;SDS011;7462;53.530;9.414;2023-02-28T15:14:12;2.43;;;1.30;;
14740;SDS011;7462;53.530;9.414;2023-02-28T15:16:44;1.57;;;1.43;;
14740;SDS011;7462;53.530;9.414;2023-02-28T15:19:17;2.50;;;1.50;;
14740;SDS011;7462;53.530;9.414;2023-02-28T15:21:49;2.10;;;1.30;;
14740;SDS011;7462;53.530;9.414;2023-02-28T15:24:21;2.67;;;1.70;;
14740;SDS011;7462;53.530;9.414;2023-02-28T15:26:59;2.73;;;1.47;;
14740;SDS011;7462;53.530;9.414;2023-02-28T15:29:32;2.80;;;1.70;;
14740;SDS011;7462;53.530;9.414;2023-02-28T15:32:20;2.10;;;1.40;;
14740;SDS011;7462;53.530;9.414;2023-02-28T15:34:51;1.20;;;1.10;;
14740;SDS011;7462;53.530;9.414;2023-02-28T15:37:27;3.40;;;1.43;;
14740;SDS011;7462;53.530;9.414;2023-02-28T15:39:58;2.90;;;1.40;;
14740;SDS011;7462;53.530;9.414;2023-02-28T15:42:37;2.73;;;1.20;;
14740;SDS011;7462;53.530;9.414;2023-02-28T15:45:25;1.70;;;1.40;;
14740;SDS011;7462;53.530;9.414;2023-02-28T15:47:56;1.13;;;1.03;;
14740;SDS011;7462;53.530;9.414;2023-02-28T15:50:39;1.87;;;1.33;;
14740;SDS011;7462;53.530;9.414;2023-02-28T15:53:12;2.40;;;1.50;;
14740;SDS011;7462;53.530;9.414;2023-02-28T15:55:43;4.20;;;1.53;;
14740;SDS011;7462;53.530;9.414;2023-02-28T15:58:12;2.37;;;1.60;;
14740;SDS011;7462;53.530;9.414;2023-02-28T16:00:43;2.57;;;1.50;;
14740;SDS011;7462;53.530;9.414;2023-02-28T16:03:25;1.67;;;1.50;;
14740;SDS011;7462;53.530;9.414;2023-02-28T16:06:19;2.30;;;1.60;;
14740;SDS011;7462;53.530;9.414;2023-02-28T16:09:05;3.00;;;1.87;;
14740;SDS011;7462;53.530;9.414;2023-02-28T16:11:35;4.70;;;2.10;;
14740;SDS011;7462;53.530;9.414;2023-02-28T16:14:12;2.50;;;1.60;;